Time;durP1;ratioP1;P1;durP2;ratioP2;P2;SDS_P1;SDS_P2;PMS_P1;PMS_P2;Temp;Humidity;BMP_temperature;BMP_pressure;BME280_temperature;BME280_humidity;BME280_pressure;Samples;Min_cycle;Max_cycle;Signal;HPM_P1;HPM_P2
2021/10/04 00:01:54;;;;;;;6.00;2.90;;;;;;;;;;5014174;28;20080;-63
2021/10/04 00:04:21;;;;;;;6.07;3.05;;;;;;;;;;5013817;28;20054;-64
2021/10/04 00:06:48;;;;;;;5.90;3.03;;;;;;;;;;5014715;28;20057;-62
2021/10/04 00:09:15;;;;;;;5.57;2.80;;;;;;;;;;5013981;28;20046;-62
2021/10/04 00:11:42;;;;;;;5.60;2.72;;;;;;;;;;5014169;28;20050;-62
2021/10/04 00:14:09;;;;;;;5.57;2.85;;;;;;;;;;5013735;28;20411;-61
2021/10/04 00:16:38;;;;;;;6.00;2.47;;;;;;;;;;5014079;28;20545;-63
2021/10/04 00:19:05;;;;;;;4.90;2.50;;;;;;;;;;5014195;28;20042;-64
2021/10/04 00:21:32;;;;;;;4.70;2.65;;;;;;;;;;5014071;28;20513;-62
2021/10/04 00:23:59;;;;;;;5.65;3.00;;;;;;;;;;5013507;28;20072;-63
2021/10/04 00:26:26;;;;;;;7.35;3.13;;;;;;;;;;5013763;28;20053;-62
2021/10/04 00:28:53;;;;;;;9.93;5.25;;;;;;;;;;5013697;28;20578;-63
2021/10/04 00:31:20;;;;;;;7.80;3.78;;;;;;;;;;5013278;28;20050;-61
2021/10/04 00:33:49;;;;;;;7.38;3.15;;;;;;;;;;5013091;28;20050;-63
2021/10/04 00:36:16;;;;;;;7.75;3.40;;;;;;;;;;5013417;28;20056;-61
2021/10/04 00:38:43;;;;;;;6.38;2.67;;;;;;;;;;5013529;28;20046;-61
2021/10/04 00:41:10;;;;;;;5.70;2.80;;;;;;;;;;5013476;28;20517;-63
2021/10/04 00:43:37;;;;;;;6.10;3.08;;;;;;;;;;5012937;28;20053;-63
2021/10/04 00:46:04;;;;;;;8.35;5.00;;;;;;;;;;5013666;28;20395;-63
2021/10/04 00:48:31;;;;;;;7.45;3.00;;;;;;;;;;5013389;28;20049;-63
2021/10/04 00:50:59;;;;;;;6.07;3.30;;;;;;;;;;5012951;28;20053;-63
2021/10/04 00:53:26;;;;;;;7.47;3.05;;;;;;;;;;5012647;28;20065;-64
2021/10/04 00:55:53;;;;;;;5.78;2.95;;;;;;;;;;5005505;28;20058;-61
2021/10/04 00:58:20;;;;;;;5.55;3.05;;;;;;;;;;4993207;28;20055;-63
2021/10/04 01:00:47;;;;;;;6.00;2.88;;;;;;;;;;4993433;28;20050;-62
2021/10/04 01:03:16;;;;;;;6.60;3.08;;;;;;;;;;4993114;28;20065;-63
2021/10/04 01:05:43;;;;;;;6.32;3.38;;;;;;;;;;4993686;28;20081;-63
2021/10/04 01:08:11;;;;;;;6.47;2.95;;;;;;;;;;4993805;28;20052;-61
2021/10/04 01:10:38;;;;;;;5.65;2.97;;;;;;;;;;4993527;28;20463;-64
2021/10/04 01:13:05;;;;;;;5.97;2.80;;;;;;;;;;4993253;28;20050;-64
2021/10/04 01:15:32;;;;;;;14.38;9.00;;;;;;;;;;4993333;28;20050;-61
2021/10/04 01:17:59;;;;;;;6.35;3.30;;;;;;;;;;4993695;28;20492;-63
2021/10/04 01:20:28;;;;;;;6.22;3.45;;;;;;;;;;4993002;28;20053;-62
2021/10/04 01:22:56;;;;;;;6.95;3.20;;;;;;;;;;4992986;28;20054;-63
2021/10/04 01:25:25;;;;;;;5.93;3.10;;;;;;;;;;4992545;28;20060;-64
2021/10/04 01:27:54;;;;;;;5.95;3.05;;;;;;;;;;4993186;28;20046;-63
2021/10/04 01:30:23;;;;;;;5.53;2.50;;;;;;;;;;4992685;28;20069;-63
2021/10/04 01:32:51;;;;;;;6.40;2.63;;;;;;;;;;4992705;28;20065;-63
2021/10/04 01:35:19;;;;;;;5.95;3.20;;;;;;;;;;4992621;28;20050;-64
2021/10/04 01:37:47;;;;;;;6.22;3.00;;;;;;;;;;4992712;28;20089;-63
2021/10/04 01:40:15;;;;;;;6.03;2.97;;;;;;;;;;4992616;28;20061;-63
2021/10/04 01:42:43;;;;;;;5.03;2.63;;;;;;;;;;4992711;28;20058;-63
2021/10/04 01:45:13;;;;;;;6.47;2.90;;;;;;;;;;4992225;28;20480;-61
2021/10/04 01:47:41;;;;;;;6.03;2.92;;;;;;;;;;4992906;28;20049;-61
2021/10/04 01:50:11;;;;;;;6.60;2.80;;;;;;;;;;4992510;28;20061;-60
2021/10/04 01:52:38;;;;;;;5.30;2.60;;;;;;;;;;4992642;28;20072;-62
2021/10/04 01:55:08;;;;;;;6.18;2.83;;;;;;;;;;4993144;28;20060;-63
2021/10/04 01:57:35;;;;;;;4.97;2.53;;;;;;;;;;5012350;28;20482;-63
2021/10/04 02:00:03;;;;;;;6.20;2.60;;;;;;;;;;5012274;28;20487;-61
2021/10/04 02:02:31;;;;;;;4.45;2.20;;;;;;;;;;5011199;28;20095;-61
2021/10/04 02:04:58;;;;;;;5.53;2.58;;;;;;;;;;5011532;28;20050;-60
2021/10/04 02:07:25;;;;;;;5.72;2.28;;;;;;;;;;5011710;28;20153;-62
2021/10/04 02:09:52;;;;;;;6.45;2.92;;;;;;;;;;5011884;28;20050;-62
2021/10/04 02:12:20;;;;;;;5.75;2.25;;;;;;;;;;5011893;28;20050;-62
2021/10/04 02:14:47;;;;;;;4.97;2.03;;;;;;;;;;5011460;28;20056;-62
2021/10/04 02:17:14;;;;;;;5.60;2.30;;;;;;;;;;5011769;28;20068;-62
2021/10/04 02:19:41;;;;;;;4.13;1.90;;;;;;;;;;5011575;28;20060;-62
2021/10/04 02:22:08;;;;;;;5.03;2.30;;;;;;;;;;5011814;28;20506;-62
2021/10/04 02:24:35;;;;;;;5.00;1.98;;;;;;;;;;5011509;28;20141;-62
2021/10/04 02:27:02;;;;;;;4.53;1.90;;;;;;;;;;5011940;28;20054;-63
2021/10/04 02:29:30;;;;;;;3.25;1.75;;;;;;;;;;5012002;28;20380;-62
2021/10/04 02:31:57;;;;;;;6.10;2.47;;;;;;;;;;5011670;28;20058;-62
2021/10/04 02:34:24;;;;;;;4.88;2.25;;;;;;;;;;5011608;28;20510;-62
2021/10/04 02:36:51;;;;;;;5.82;2.00;;;;;;;;;;5011688;28;20049;-60
2021/10/04 02:39:18;;;;;;;4.78;1.83;;;;;;;;;;5011827;28;20500;-60
2021/10/04 02:41:45;;;;;;;4.35;1.80;;;;;;;;;;5011933;28;20056;-63
2021/10/04 02:44:12;;;;;;;5.45;1.80;;;;;;;;;;5011342;28;20046;-63
2021/10/04 02:46:40;;;;;;;4.57;1.52;;;;;;;;;;5011574;28;20129;-62
2021/10/04 02:49:07;;;;;;;5.55;2.05;;;;;;;;;;5011713;28;20046;-62
2021/10/04 02:51:34;;;;;;;3.38;1.50;;;;;;;;;;5011321;28;20062;-62
2021/10/04 02:54:01;;;;;;;3.90;1.75;;;;;;;;;;5011200;28;20056;-63
2021/10/04 02:56:28;;;;;;;3.85;1.92;;;;;;;;;;4999074;28;20050;-63
2021/10/04 02:58:55;;;;;;;7.63;2.22;;;;;;;;;;4991958;28;20061;-62
2021/10/04 03:01:22;;;;;;;5.35;1.92;;;;;;;;;;4991802;28;20058;-62
2021/10/04 03:03:50;;;;;;;5.32;2.25;;;;;;;;;;4991963;28;20073;-62
2021/10/04 03:06:17;;;;;;;5.53;2.03;;;;;;;;;;4992203;28;20050;-61
2021/10/04 03:08:44;;;;;;;4.88;1.70;;;;;;;;;;4991994;28;20050;-62
2021/10/04 03:11:11;;;;;;;5.15;2.00;;;;;;;;;;4991888;28;20047;-62
2021/10/04 03:13:38;;;;;;;4.68;1.75;;;;;;;;;;4992377;28;20061;-62
2021/10/04 03:16:05;;;;;;;3.33;1.60;;;;;;;;;;4995242;28;20051;-61
2021/10/04 03:18:32;;;;;;;3.70;1.70;;;;;;;;;;4995437;28;20054;-60
2021/10/04 03:21:00;;;;;;;3.92;1.50;;;;;;;;;;4995184;28;20057;-62
2021/10/04 03:23:27;;;;;;;4.47;1.90;;;;;;;;;;4994885;28;20054;-62
2021/10/04 03:25:54;;;;;;;3.92;1.55;;;;;;;;;;4995349;28;20056;-60
2021/10/04 03:28:21;;;;;;;4.35;1.75;;;;;;;;;;4995160;28;20050;-63
2021/10/04 03:30:48;;;;;;;4.60;1.95;;;;;;;;;;4995196;28;20050;-63
2021/10/04 03:33:16;;;;;;;3.88;1.70;;;;;;;;;;4994668;28;20058;-62
2021/10/04 03:35:44;;;;;;;3.40;1.55;;;;;;;;;;4994973;28;20054;-62
2021/10/04 03:38:12;;;;;;;3.60;1.83;;;;;;;;;;4995169;28;20058;-61
2021/10/04 03:40:39;;;;;;;4.63;2.00;;;;;;;;;;4994973;28;20050;-60
2021/10/04 03:43:07;;;;;;;4.78;2.05;;;;;;;;;;4994791;28;20046;-62
2021/10/04 03:45:34;;;;;;;4.80;1.65;;;;;;;;;;4995107;28;20149;-60
2021/10/04 03:48:01;;;;;;;5.95;2.10;;;;;;;;;;4995137;28;20053;-61
2021/10/04 03:50:28;;;;;;;4.85;2.00;;;;;;;;;;4994814;28;20400;-62
2021/10/04 03:52:55;;;;;;;3.35;1.52;;;;;;;;;;4994835;28;20061;-59
2021/10/04 03:55:23;;;;;;;4.22;2.08;;;;;;;;;;4997482;28;20087;-62
2021/10/04 03:57:51;;;;;;;5.40;1.65;;;;;;;;;;5014565;28;20050;-63
2021/10/04 04:00:20;;;;;;;5.00;2.40;;;;;;;;;;5014098;28;20060;-61
2021/10/04 04:02:47;;;;;;;3.67;1.67;;;;;;;;;;5014142;28;20058;-62
2021/10/04 04:05:15;;;;;;;9.80;4.63;;;;;;;;;;5013907;28;20076;-61
2021/10/04 04:07:42;;;;;;;4.60;1.70;;;;;;;;;;5014360;28;20065;-63
2021/10/04 04:10:11;;;;;;;4.13;2.15;;;;;;;;;;5013819;28;20054;-63
2021/10/04 04:12:41;;;;;;;3.85;1.85;;;;;;;;;;5013761;28;20046;-62
2021/10/04 04:15:09;;;;;;;7.57;2.25;;;;;;;;;;5013690;28;20057;-62
2021/10/04 04:17:36;;;;;;;7.82;2.42;;;;;;;;;;5013866;28;20050;-60
2021/10/04 04:20:03;;;;;;;5.55;2.20;;;;;;;;;;5013809;28;20388;-62
2021/10/04 04:22:30;;;;;;;3.45;1.50;;;;;;;;;;5013395;28;20081;-62
2021/10/04 04:24:57;;;;;;;3.97;1.58;;;;;;;;;;5013129;28;20058;-61
2021/10/04 04:27:25;;;;;;;5.03;2.20;;;;;;;;;;5013300;28;20046;-61
2021/10/04 04:29:54;;;;;;;4.32;1.90;;;;;;;;;;5013695;28;20053;-63
2021/10/04 04:32:20;;;;;;;4.82;1.77;;;;;;;;;;5013827;28;20057;-62
2021/10/04 04:34:47;;;;;;;4.80;1.60;;;;;;;;;;5013118;28;20097;-62
2021/10/04 04:37:14;;;;;;;4.07;1.90;;;;;;;;;;5013458;28;20510;-62
2021/10/04 04:39:42;;;;;;;4.82;2.10;;;;;;;;;;5013423;28;20072;-59
2021/10/04 04:42:09;;;;;;;6.22;2.47;;;;;;;;;;5013745;28;20046;-63
2021/10/04 04:44:36;;;;;;;4.57;2.28;;;;;;;;;;5013420;28;20050;-61
2021/10/04 04:47:04;;;;;;;5.38;2.00;;;;;;;;;;5013654;28;20068;-63
2021/10/04 04:49:31;;;;;;;6.82;2.45;;;;;;;;;;5013358;28;20050;-60
2021/10/04 04:52:00;;;;;;;4.90;2.10;;;;;;;;;;5013200;28;20422;-62
2021/10/04 04:54:27;;;;;;;5.00;1.90;;;;;;;;;;5013126;28;20518;-62
2021/10/04 04:56:55;;;;;;;5.50;2.22;;;;;;;;;;4997218;28;20051;-63
2021/10/04 04:59:22;;;;;;;4.95;2.10;;;;;;;;;;4993503;28;20054;-61
2021/10/04 05:01:49;;;;;;;6.45;2.30;;;;;;;;;;4993185;28;20053;-63
2021/10/04 05:04:17;;;;;;;7.65;2.65;;;;;;;;;;4992962;28;20057;-63
2021/10/04 05:06:45;;;;;;;7.07;2.90;;;;;;;;;;4993275;28;20054;-63
2021/10/04 05:09:12;;;;;;;6.35;2.40;;;;;;;;;;4993349;28;20050;-63
2021/10/04 05:11:39;;;;;;;8.18;2.35;;;;;;;;;;4993371;28;20088;-63
2021/10/04 05:14:06;;;;;;;7.32;4.60;;;;;;;;;;4993048;28;20414;-61
2021/10/04 05:16:33;;;;;;;10.38;3.85;;;;;;;;;;4993075;28;20053;-62
2021/10/04 05:19:00;;;;;;;9.23;2.70;;;;;;;;;;4993688;28;20057;-62
2021/10/04 05:21:28;;;;;;;9.80;3.20;;;;;;;;;;4993058;28;20054;-63
2021/10/04 05:23:55;;;;;;;4.47;1.85;;;;;;;;;;4993044;28;20062;-62
2021/10/04 05:26:23;;;;;;;9.18;3.03;;;;;;;;;;4992978;28;20061;-62
2021/10/04 05:28:50;;;;;;;9.48;2.42;;;;;;;;;;5004485;23;20521;-60
2021/10/04 05:31:17;;;;;;;6.78;2.60;;;;;;;;;;4992939;28;20054;-61
2021/10/04 05:33:44;;;;;;;5.85;2.60;;;;;;;;;;4993018;28;20086;-60
2021/10/04 05:36:11;;;;;;;6.78;2.83;;;;;;;;;;4993697;28;20398;-60
2021/10/04 05:38:39;;;;;;;8.30;3.42;;;;;;;;;;4993246;28;20051;-58
2021/10/04 05:41:07;;;;;;;7.57;3.17;;;;;;;;;;4993124;28;20439;-61
2021/10/04 05:43:34;;;;;;;7.78;2.65;;;;;;;;;;4992617;28;20054;-58
2021/10/04 05:46:02;;;;;;;5.63;2.22;;;;;;;;;;4992944;28;20061;-59
2021/10/04 05:48:29;;;;;;;5.70;2.05;;;;;;;;;;4993026;28;20046;-61
2021/10/04 05:50:56;;;;;;;5.32;2.20;;;;;;;;;;4992685;28;20061;-59
2021/10/04 05:53:23;;;;;;;8.10;2.15;;;;;;;;;;4992624;28;20065;-61
2021/10/04 05:55:52;;;;;;;8.13;4.05;;;;;;;;;;4992835;28;20057;-59
2021/10/04 05:58:19;;;;;;;10.52;2.40;;;;;;;;;;4992774;28;20093;-59
2021/10/04 06:00:46;;;;;;;8.63;2.78;;;;;;;;;;4992904;28;20054;-60
2021/10/04 06:03:13;;;;;;;7.47;2.60;;;;;;;;;;4992645;28;20047;-61
2021/10/04 06:05:40;;;;;;;7.28;2.17;;;;;;;;;;4993382;28;20077;-59
2021/10/04 06:08:07;;;;;;;5.97;2.20;;;;;;;;;;4992999;28;20407;-59
2021/10/04 06:10:33;;;;;;;10.50;4.15;;;;;;;;;;4992654;28;20491;-60
2021/10/04 06:13:02;;;;;;;7.82;2.67;;;;;;;;;;4992614;28;20059;-59
2021/10/04 06:15:30;;;;;;;10.95;4.93;;;;;;;;;;4992721;28;20447;-59
2021/10/04 06:17:57;;;;;;;10.70;3.08;;;;;;;;;;4992714;28;20051;-60
2021/10/04 06:20:24;;;;;;;6.63;2.60;;;;;;;;;;4992473;28;20050;-60
2021/10/04 06:22:52;;;;;;;8.27;2.78;;;;;;;;;;4992657;28;20070;-60
2021/10/04 06:25:20;;;;;;;7.32;2.88;;;;;;;;;;4992570;28;20054;-61
2021/10/04 06:27:49;;;;;;;7.90;2.88;;;;;;;;;;4992279;28;20060;-60
2021/10/04 06:30:18;;;;;;;8.68;3.25;;;;;;;;;;4992478;28;20058;-59
2021/10/04 06:32:46;;;;;;;9.18;3.17;;;;;;;;;;4992464;28;20054;-60
2021/10/04 06:35:15;;;;;;;7.57;2.53;;;;;;;;;;4992657;28;20051;-60
2021/10/04 06:37:42;;;;;;;12.07;3.90;;;;;;;;;;4992540;28;20046;-60
2021/10/04 06:40:10;;;;;;;18.80;2.67;;;;;;;;;;4992077;28;20500;-59
2021/10/04 06:42:37;;;;;;;7.15;2.58;;;;;;;;;;4992813;28;20051;-60
2021/10/04 06:45:05;;;;;;;8.30;2.95;;;;;;;;;;4992613;28;20069;-60
2021/10/04 06:47:33;;;;;;;7.80;2.40;;;;;;;;;;4992237;28;20050;-59
2021/10/04 06:50:01;;;;;;;6.75;2.95;;;;;;;;;;4995076;28;20057;-61
2021/10/04 06:52:28;;;;;;;13.38;3.17;;;;;;;;;;4993320;28;20053;-59
2021/10/04 06:54:56;;;;;;;10.63;3.00;;;;;;;;;;4996356;28;20503;-61
2021/10/04 06:57:23;;;;;;;6.82;3.08;;;;;;;;;;4996201;28;20061;-61
2021/10/04 06:59:50;;;;;;;8.25;2.58;;;;;;;;;;4996210;28;20047;-62
2021/10/04 07:02:17;;;;;;;9.40;3.78;;;;;;;;;;4996161;28;20046;-59
2021/10/04 07:04:45;;;;;;;6.47;2.75;;;;;;;;;;4995971;28;20061;-60
2021/10/04 07:07:13;;;;;;;11.75;7.88;;;;;;;;;;4993499;28;20061;-60
2021/10/04 07:09:41;;;;;;;9.60;4.32;;;;;;;;;;4994324;28;20137;-62
2021/10/04 07:12:08;;;;;;;10.10;4.32;;;;;;;;;;4993974;28;20416;-60
2021/10/04 07:14:35;;;;;;;6.47;2.70;;;;;;;;;;4993899;28;20058;-62
2021/10/04 07:17:02;;;;;;;10.18;4.38;;;;;;;;;;4994114;28;20054;-61
2021/10/04 07:19:29;;;;;;;11.65;5.60;;;;;;;;;;4994094;28;20061;-60
2021/10/04 07:21:59;;;;;;;9.40;5.07;;;;;;;;;;4993817;28;20065;-62
2021/10/04 07:24:26;;;;;;;10.33;3.83;;;;;;;;;;4993680;28;20053;-62
2021/10/04 07:26:53;;;;;;;10.73;4.90;;;;;;;;;;4993462;28;20061;-62
2021/10/04 07:29:21;;;;;;;8.85;4.65;;;;;;;;;;4993322;28;20050;-61
2021/10/04 07:31:49;;;;;;;15.63;9.15;;;;;;;;;;4993285;28;20065;-62
2021/10/04 07:34:16;;;;;;;8.25;3.63;;;;;;;;;;4993122;28;20050;-62
2021/10/04 07:36:43;;;;;;;6.28;3.17;;;;;;;;;;4993832;28;20488;-62
2021/10/04 07:39:12;;;;;;;9.40;3.70;;;;;;;;;;4993641;28;20491;-62
2021/10/04 07:41:39;;;;;;;7.47;3.80;;;;;;;;;;4993576;28;20403;-61
2021/10/04 07:44:07;;;;;;;90.43;12.80;;;;;;;;;;4993476;28;20411;-61
2021/10/04 07:46:34;;;;;;;9.25;3.53;;;;;;;;;;4993380;28;20054;-60
2021/10/04 07:49:01;;;;;;;6.80;3.60;;;;;;;;;;4993328;28;20047;-60
2021/10/04 07:51:28;;;;;;;8.43;3.38;;;;;;;;;;4993286;28;20062;-60
2021/10/04 07:53:55;;;;;;;7.65;4.25;;;;;;;;;;4993500;28;20133;-61
2021/10/04 07:56:24;;;;;;;15.73;8.73;;;;;;;;;;4992925;28;20519;-61
2021/10/04 07:58:51;;;;;;;8.98;3.83;;;;;;;;;;4993105;28;20109;-61
2021/10/04 08:01:18;;;;;;;5.65;3.00;;;;;;;;;;4991824;28;20514;-61
2021/10/04 08:03:45;;;;;;;11.85;3.53;;;;;;;;;;4992851;28;20054;-61
2021/10/04 08:06:13;;;;;;;9.80;3.15;;;;;;;;;;4993314;28;20077;-61
2021/10/04 08:08:40;;;;;;;5.78;2.63;;;;;;;;;;4992736;28;20058;-62
2021/10/04 08:11:07;;;;;;;10.73;3.65;;;;;;;;;;4992336;28;20117;-62
2021/10/04 08:13:37;;;;;;;7.75;3.42;;;;;;;;;;4992583;28;20104;-61
2021/10/04 08:16:05;;;;;;;6.10;2.70;;;;;;;;;;4992515;28;20126;-62
2021/10/04 08:18:32;;;;;;;4.85;2.65;;;;;;;;;;4993050;28;20054;-61
2021/10/04 08:20:59;;;;;;;7.18;2.80;;;;;;;;;;4992677;28;20053;-61
2021/10/04 08:23:26;;;;;;;6.18;3.28;;;;;;;;;;4992483;28;20086;-61
2021/10/04 08:25:52;;;;;;;5.18;3.00;;;;;;;;;;4992885;28;20054;-60
2021/10/04 08:28:19;;;;;;;8.02;3.70;;;;;;;;;;4992224;28;20055;-60
2021/10/04 08:30:48;;;;;;;8.23;5.72;;;;;;;;;;4992322;28;20050;-61
2021/10/04 08:33:15;;;;;;;8.65;4.95;;;;;;;;;;4992860;28;20274;-61
2021/10/04 08:35:42;;;;;;;5.75;2.92;;;;;;;;;;4993412;28;20530;-61
2021/10/04 08:38:09;;;;;;;6.43;3.70;;;;;;;;;;4992362;28;20050;-62
2021/10/04 08:40:37;;;;;;;7.32;3.72;;;;;;;;;;4991874;28;20050;-61
2021/10/04 08:43:04;;;;;;;7.75;3.33;;;;;;;;;;4992045;28;20152;-62
2021/10/04 08:45:31;;;;;;;8.60;3.60;;;;;;;;;;4992150;28;20058;-61
2021/10/04 08:48:02;;;;;;;8.10;3.53;;;;;;;;;;4992193;28;20077;-61
2021/10/04 08:50:31;;;;;;;5.15;2.67;;;;;;;;;;4992119;28;20058;-61
2021/10/04 08:52:58;;;;;;;5.85;2.83;;;;;;;;;;4991899;28;20061;-62
2021/10/04 08:55:25;;;;;;;4.47;2.75;;;;;;;;;;4991612;28;20050;-62
2021/10/04 08:57:52;;;;;;;6.70;3.70;;;;;;;;;;4991969;28;20046;-64
2021/10/04 09:00:19;;;;;;;7.85;4.75;;;;;;;;;;4991437;28;20058;-64
2021/10/04 09:02:48;;;;;;;5.38;2.47;;;;;;;;;;4991668;28;20077;-58
2021/10/04 09:05:20;;;;;;;5.82;3.08;;;;;;;;;;4991576;28;20058;-61
2021/10/04 09:07:49;;;;;;;6.07;2.80;;;;;;;;;;4991262;28;20137;-60
2021/10/04 09:10:18;;;;;;;7.65;2.80;;;;;;;;;;4991518;28;20046;-61
2021/10/04 09:12:48;;;;;;;6.80;3.10;;;;;;;;;;4990957;28;20065;-58
2021/10/04 09:15:33;;;;;;;10.35;4.00;;;;;;;;;;4991638;28;20133;-58
2021/10/04 09:18:03;;;;;;;7.90;3.85;;;;;;;;;;4991574;28;20484;-60
2021/10/04 09:20:53;;;;;;;7.37;3.33;;;;;;;;;;4991288;28;20071;-61
2021/10/04 09:23:44;;;;;;;10.07;4.13;;;;;;;;;;4991565;28;20057;-61
2021/10/04 09:26:13;;;;;;;10.73;5.35;;;;;;;;;;4991506;28;20050;-61
2021/10/04 09:28:43;;;;;;;8.65;4.78;;;;;;;;;;4991315;28;20515;-61
2021/10/04 09:31:22;;;;;;;9.82;6.28;;;;;;;;;;4991607;28;20104;-61
2021/10/04 09:34:04;;;;;;;9.80;4.80;;;;;;;;;;4991311;28;20144;-61
2021/10/04 09:36:33;;;;;;;8.40;3.17;;;;;;;;;;4990981;28;20050;-61
2021/10/04 09:39:19;;;;;;;8.18;3.33;;;;;;;;;;4991135;28;20076;-59
2021/10/04 09:42:14;;;;;;;8.50;3.78;;;;;;;;;;4991180;28;20050;-57
2021/10/04 09:44:54;;;;;;;10.10;3.90;;;;;;;;;;4991239;28;20088;-61
2021/10/04 09:47:24;;;;;;;11.32;4.25;;;;;;;;;;4990705;28;20054;-62
2021/10/04 09:49:58;;;;;;;6.80;3.53;;;;;;;;;;4991053;28;20141;-61
2021/10/04 09:52:42;;;;;;;6.47;3.38;;;;;;;;;;4991326;28;20050;-61
2021/10/04 09:55:27;;;;;;;6.85;3.55;;;;;;;;;;4990939;28;20495;-59
2021/10/04 09:58:01;;;;;;;9.27;3.53;;;;;;;;;;4990861;28;20054;-61
2021/10/04 10:00:29;;;;;;;6.43;3.70;;;;;;;;;;4991062;28;20061;-62
2021/10/04 10:02:57;;;;;;;8.07;3.63;;;;;;;;;;4990993;28;20101;-61
2021/10/04 10:05:26;;;;;;;5.60;2.92;;;;;;;;;;4991066;28;20185;-59
2021/10/04 10:07:56;;;;;;;9.90;3.83;;;;;;;;;;4991019;28;20511;-61
2021/10/04 10:10:23;;;;;;;7.03;3.33;;;;;;;;;;4990608;28;20495;-63
2021/10/04 10:12:51;;;;;;;8.23;3.20;;;;;;;;;;4990997;28;20047;-63
2021/10/04 10:15:20;;;;;;;19.42;8.85;;;;;;;;;;4990470;28;20057;-63
2021/10/04 10:17:49;;;;;;;35.10;11.27;;;;;;;;;;4990671;28;20054;-63
2021/10/04 10:20:19;;;;;;;21.65;8.15;;;;;;;;;;4990636;28;20057;-63
2021/10/04 10:22:47;;;;;;;12.93;5.47;;;;;;;;;;4995458;28;20057;-59
2021/10/04 10:25:37;;;;;;;27.92;11.70;;;;;;;;;;5013330;28;20058;-62
2021/10/04 10:28:07;;;;;;;34.45;12.32;;;;;;;;;;4975029;28;20068;-60
2021/10/04 10:30:34;;;;;;;10.35;5.45;;;;;;;;;;4975488;28;20507;-61
2021/10/04 10:33:02;;;;;;;13.68;5.95;;;;;;;;;;4974930;28;20051;-61
2021/10/04 10:35:50;;;;;;;7.32;4.85;;;;;;;;;;4974784;28;20520;-59
2021/10/04 10:38:19;;;;;;;20.83;9.35;;;;;;;;;;4975150;28;20412;-64
2021/10/04 10:41:16;;;;;;;7.80;4.40;;;;;;;;;;4974994;28;20515;-61
2021/10/04 10:44:18;;;;;;;7.78;4.32;;;;;;;;;;4975289;28;20054;-60
2021/10/04 10:46:55;;;;;;;8.77;4.65;;;;;;;;;;4972834;28;20087;-58
2021/10/04 10:49:59;;;;;;;7.82;4.10;;;;;;;;;;4974761;28;20058;-60
2021/10/04 10:52:28;;;;;;;6.78;3.90;;;;;;;;;;4985242;28;20109;-61
2021/10/04 10:54:56;;;;;;;6.75;3.83;;;;;;;;;;4993940;28;20322;-61
2021/10/04 10:57:45;;;;;;;6.93;3.65;;;;;;;;;;4993875;28;20110;-61
2021/10/04 11:00:18;;;;;;;9.35;4.60;;;;;;;;;;4993846;28;20439;-60
2021/10/04 11:02:50;;;;;;;10.25;4.32;;;;;;;;;;4994159;28;20050;-60
2021/10/04 11:05:48;;;;;;;10.52;5.28;;;;;;;;;;4993920;28;20058;-61
2021/10/04 11:08:17;;;;;;;9.55;4.28;;;;;;;;;;4993904;28;20046;-59
2021/10/04 11:11:10;;;;;;;8.10;4.03;;;;;;;;;;4993710;28;20388;-59
2021/10/04 11:13:40;;;;;;;8.68;3.97;;;;;;;;;;4993755;28;20058;-60
2021/10/04 11:16:45;;;;;;;7.00;3.67;;;;;;;;;;4993658;28;20054;-61
2021/10/04 11:19:23;;;;;;;7.40;3.60;;;;;;;;;;4972317;28;20065;-59
2021/10/04 11:21:51;;;;;;;11.85;4.95;;;;;;;;;;4993457;28;20050;-58
2021/10/04 11:24:20;;;;;;;9.40;4.75;;;;;;;;;;4993673;28;20097;-61
2021/10/04 11:26:47;;;;;;;9.95;4.00;;;;;;;;;;4993290;28;20046;-61
2021/10/04 11:29:18;;;;;;;10.98;5.00;;;;;;;;;;5004085;23;20073;-60
2021/10/04 11:31:46;;;;;;;9.30;3.00;;;;;;;;;;4973325;28;20146;-65
2021/10/04 11:34:14;;;;;;;6.50;2.85;;;;;;;;;;4973553;28;20051;-63
2021/10/04 11:36:43;;;;;;;6.35;3.08;;;;;;;;;;4973651;28;20050;-62
2021/10/04 11:39:13;;;;;;;6.10;2.83;;;;;;;;;;4973540;28;20057;-60
2021/10/04 11:41:43;;;;;;;4.70;2.53;;;;;;;;;;4973641;28;20055;-60
2021/10/04 11:44:13;;;;;;;7.55;2.78;;;;;;;;;;4973524;28;20046;-60
2021/10/04 11:46:44;;;;;;;6.97;3.50;;;;;;;;;;4973624;28;20088;-60
2021/10/04 11:49:14;;;;;;;5.88;3.15;;;;;;;;;;4973323;28;20042;-66
2021/10/04 11:51:46;;;;;;;7.35;3.28;;;;;;;;;;4973438;28;20485;-60
2021/10/04 11:54:29;;;;;;;5.25;2.83;;;;;;;;;;4973519;28;20213;-61
2021/10/04 11:56:57;;;;;;;9.25;3.20;;;;;;;;;;4973117;28;20047;-60
2021/10/04 11:59:24;;;;;;;6.15;3.75;;;;;;;;;;4973465;28;20097;-60
2021/10/04 12:01:54;;;;;;;7.43;3.88;;;;;;;;;;4973143;28;20050;-60
2021/10/04 12:04:22;;;;;;;6.65;2.90;;;;;;;;;;4973101;28;20070;-62
2021/10/04 12:06:49;;;;;;;8.23;3.75;;;;;;;;;;4973408;28;20061;-61
2021/10/04 12:09:18;;;;;;;5.55;3.35;;;;;;;;;;4973223;28;20043;-62
2021/10/04 12:11:55;;;;;;;4.82;2.50;;;;;;;;;;4972993;28;20055;-61
2021/10/04 12:14:23;;;;;;;6.97;3.53;;;;;;;;;;4962388;28;20064;-61
2021/10/04 12:16:59;;;;;;;6.85;3.15;;;;;;;;;;4973055;28;20272;-61
2021/10/04 12:19:27;;;;;;;9.52;3.53;;;;;;;;;;4972716;28;20110;-61
2021/10/04 12:21:56;;;;;;;8.80;2.88;;;;;;;;;;4956020;28;20057;-62
2021/10/04 12:24:26;;;;;;;7.32;3.05;;;;;;;;;;4953446;28;20059;-62
2021/10/04 12:26:59;;;;;;;6.80;2.97;;;;;;;;;;4953433;28;20055;-62
2021/10/04 12:29:36;;;;;;;5.88;2.75;;;;;;;;;;4958669;28;20480;-62
2021/10/04 12:32:19;;;;;;;6.53;2.60;;;;;;;;;;4953591;28;20051;-62
2021/10/04 12:35:01;;;;;;;6.55;3.20;;;;;;;;;;4953645;28;20055;-62
2021/10/04 12:37:30;;;;;;;5.07;2.92;;;;;;;;;;4969192;28;20138;-62
2021/10/04 12:39:58;;;;;;;5.65;2.30;;;;;;;;;;4972752;28;20469;-62
2021/10/04 12:42:27;;;;;;;5.28;2.33;;;;;;;;;;4972976;28;20062;-62
2021/10/04 12:44:55;;;;;;;5.32;2.50;;;;;;;;;;4972542;28;20117;-61
2021/10/04 12:47:23;;;;;;;8.85;2.60;;;;;;;;;;4970624;28;20527;-62
2021/10/04 12:49:55;;;;;;;4.95;2.63;;;;;;;;;;4952814;28;20134;-62
2021/10/04 12:52:24;;;;;;;4.32;2.40;;;;;;;;;;4952998;28;20441;-61
2021/10/04 12:54:53;;;;;;;5.97;2.80;;;;;;;;;;4952861;28;20058;-61
2021/10/04 12:57:25;;;;;;;5.60;2.35;;;;;;;;;;4952746;28;20047;-62
2021/10/04 12:59:57;;;;;;;6.28;2.60;;;;;;;;;;4952851;28;20078;-61
2021/10/04 13:02:28;;;;;;;7.45;3.22;;;;;;;;;;4953286;28;20437;-61
2021/10/04 13:04:56;;;;;;;7.68;3.58;;;;;;;;;;4953025;28;20488;-61
2021/10/04 13:07:25;;;;;;;5.25;2.30;;;;;;;;;;4952704;28;20054;-61
2021/10/04 13:09:53;;;;;;;5.38;2.35;;;;;;;;;;4952677;28;20114;-61
2021/10/04 13:12:24;;;;;;;6.85;2.28;;;;;;;;;;4952572;29;20048;-61
2021/10/04 13:14:51;;;;;;;7.10;2.08;;;;;;;;;;4952774;28;20047;-61
2021/10/04 13:17:18;;;;;;;5.47;2.38;;;;;;;;;;4953135;28;20047;-62
2021/10/04 13:19:51;;;;;;;4.25;1.77;;;;;;;;;;4952682;29;20055;-61
2021/10/04 13:22:18;;;;;;;8.00;2.35;;;;;;;;;;4952817;29;20166;-62
2021/10/04 13:24:46;;;;;;;4.63;2.17;;;;;;;;;;4952775;29;20505;-61
2021/10/04 13:27:13;;;;;;;4.65;2.22;;;;;;;;;;4952577;29;20051;-61
2021/10/04 13:29:40;;;;;;;3.33;1.60;;;;;;;;;;4952487;29;20051;-62
2021/10/04 13:32:08;;;;;;;4.38;1.95;;;;;;;;;;4952517;28;20058;-62
2021/10/04 13:34:35;;;;;;;4.70;2.33;;;;;;;;;;4952291;29;20065;-61
2021/10/04 13:37:04;;;;;;;7.38;2.75;;;;;;;;;;4952698;29;20472;-61
2021/10/04 13:39:31;;;;;;;5.10;2.45;;;;;;;;;;4952111;29;20081;-62
2021/10/04 13:41:58;;;;;;;5.28;2.70;;;;;;;;;;4952838;29;20051;-62
2021/10/04 13:44:25;;;;;;;11.50;5.15;;;;;;;;;;4952142;29;20277;-62
2021/10/04 13:46:53;;;;;;;8.45;4.40;;;;;;;;;;4952287;28;20477;-62
2021/10/04 13:49:20;;;;;;;5.32;2.45;;;;;;;;;;4952347;29;20322;-60
2021/10/04 13:51:47;;;;;;;5.15;2.92;;;;;;;;;;4955897;28;20046;-62
2021/10/04 13:54:15;;;;;;;9.18;3.15;;;;;;;;;;4971152;28;20419;-62
2021/10/04 13:56:43;;;;;;;5.80;2.80;;;;;;;;;;4971393;28;20057;-62
2021/10/04 13:59:10;;;;;;;10.15;4.25;;;;;;;;;;4970369;28;20050;-62
2021/10/04 14:01:38;;;;;;;5.43;3.17;;;;;;;;;;4970993;28;20150;-62
2021/10/04 14:04:06;;;;;;;4.25;2.10;;;;;;;;;;4971138;28;20043;-62
2021/10/04 14:06:33;;;;;;;5.30;2.60;;;;;;;;;;4968983;28;20046;-62
2021/10/04 14:09:01;;;;;;;4.80;2.15;;;;;;;;;;4952017;28;20089;-62
2021/10/04 14:11:29;;;;;;;4.70;2.45;;;;;;;;;;4962165;28;20126;-62
2021/10/04 14:13:57;;;;;;;4.97;2.53;;;;;;;;;;4951808;28;20126;-62
2021/10/04 14:16:24;;;;;;;4.30;2.10;;;;;;;;;;4951671;28;20102;-62
2021/10/04 14:18:54;;;;;;;6.10;3.22;;;;;;;;;;4964581;28;20108;-60
2021/10/04 14:21:23;;;;;;;5.57;2.40;;;;;;;;;;4959969;28;20481;-62
2021/10/04 14:23:50;;;;;;;5.80;2.78;;;;;;;;;;4951556;28;20082;-62
2021/10/04 14:26:18;;;;;;;5.22;2.40;;;;;;;;;;4951718;28;20091;-61
2021/10/04 14:28:46;;;;;;;4.60;2.20;;;;;;;;;;4951753;28;20401;-62
2021/10/04 14:31:13;;;;;;;4.28;2.00;;;;;;;;;;4951464;28;20289;-62
2021/10/04 14:33:40;;;;;;;6.15;2.10;;;;;;;;;;4961522;28;20504;-62
2021/10/04 14:36:08;;;;;;;3.60;2.13;;;;;;;;;;4970329;28;20455;-62
2021/10/04 14:38:35;;;;;;;5.35;2.28;;;;;;;;;;4952758;28;20047;-62
2021/10/04 14:41:04;;;;;;;6.35;2.10;;;;;;;;;;4966811;28;20047;-62
2021/10/04 14:43:32;;;;;;;5.90;2.55;;;;;;;;;;4970845;28;20139;-62
2021/10/04 14:46:01;;;;;;;7.45;3.00;;;;;;;;;;4970455;28;20134;-61
2021/10/04 14:48:28;;;;;;;8.40;4.63;;;;;;;;;;4970692;28;20122;-61
2021/10/04 14:50:55;;;;;;;13.48;5.57;;;;;;;;;;4970597;28;20057;-61
2021/10/04 14:53:22;;;;;;;11.35;6.70;;;;;;;;;;4970667;28;20047;-61